sensor_id;sensor_type;location;lat;lon;timestamp;temperature;humidity
24560;DHT22;12727;49.934;8.656;2023-11-19T00:00:25;8.30;99.90
24560;DHT22;12727;49.934;8.656;2023-11-19T00:02:51;8.30;99.90
24560;DHT22;12727;49.934;8.656;2023-11-19T00:05:16;8.20;99.90
24560;DHT22;12727;49.934;8.656;2023-11-19T00:07:42;8.30;99.90
24560;DHT22;12727;49.934;8.656;2023-11-19T00:10:12;8.30;99.90
24560;DHT22;12727;49.934;8.656;2023-11-19T00:12:40;8.30;99.90
24560;DHT22;12727;49.934;8.656;2023-11-19T00:15:07;8.30;99.90
24560;DHT22;12727;49.934;8.656;2023-11-19T00:17:40;8.30;99.90
24560;DHT22;12727;49.934;8.656;2023-11-19T00:20:06;8.40;99.90
24560;DHT22;12727;49.934;8.656;2023-11-19T00:22:32;8.40;99.90
24560;DHT22;12727;49.934;8.656;2023-11-19T00:24:58;8.40;99.90
24560;DHT22;12727;49.934;8.656;2023-11-19T00:27:25;8.40;99.90
24560;DHT22;12727;49.934;8.656;2023-11-19T00:29:50;8.40;99.90
24560;DHT22;12727;49.934;8.656;2023-11-19T00:32:16;8.40;99.90
24560;DHT22;12727;49.934;8.656;2023-11-19T00:34:44;8.30;99.90
24560;DHT22;12727;49.934;8.656;2023-11-19T00:37:10;8.40;99.90
24560;DHT22;12727;49.934;8.656;2023-11-19T00:39:35;8.30;99.90
24560;DHT22;12727;49.934;8.656;2023-11-19T00:42:01;8.30;99.90
24560;DHT22;12727;49.934;8.656;2023-11-19T00:44:27;8.40;99.90
24560;DHT22;12727;49.934;8.656;2023-11-19T00:46:52;8.40;99.90
24560;DHT22;12727;49.934;8.656;2023-11-19T00:49:18;8.40;99.90
24560;DHT22;12727;49.934;8.656;2023-11-19T00:51:43;8.50;99.90
24560;DHT22;12727;49.934;8.656;2023-11-19T00:54:10;8.50;99.90
24560;DHT22;12727;49.934;8.656;2023-11-19T00:56:36;8.60;99.90
24560;DHT22;12727;49.934;8.656;2023-11-19T00:59:02;8.60;99.90
24560;DHT22;12727;49.934;8.656;2023-11-19T01:01:29;8.60;99.90
24560;DHT22;12727;49.934;8.656;2023-11-19T01:03:55;8.60;99.90
24560;DHT22;12727;49.934;8.656;2023-11-19T01:06:29;8.60;99.90
24560;DHT22;12727;49.934;8.656;2023-11-19T01:08:56;8.60;99.90
24560;DHT22;12727;49.934;8.656;2023-11-19T01:11:23;8.60;99.90
24560;DHT22;12727;49.934;8.656;2023-11-19T01:13:49;8.60;99.90
24560;DHT22;12727;49.934;8.656;2023-11-19T01:16:15;8.70;99.90
24560;DHT22;12727;49.934;8.656;2023-11-19T01:18:41;8.70;99.90
24560;DHT22;12727;49.934;8.656;2023-11-19T01:21:07;8.70;99.90
24560;DHT22;12727;49.934;8.656;2023-11-19T01:23:32;8.70;99.90
24560;DHT22;12727;49.934;8.656;2023-11-19T01:25:59;8.80;99.90
24560;DHT22;12727;49.934;8.656;2023-11-19T01:28:25;8.80;99.90
24560;DHT22;12727;49.934;8.656;2023-11-19T01:30:50;8.70;99.90
24560;DHT22;12727;49.934;8.656;2023-11-19T01:33:16;8.70;99.90
24560;DHT22;12727;49.934;8.656;2023-11-19T01:35:42;8.70;99.90
24560;DHT22;12727;49.934;8.656;2023-11-19T01:38:07;8.70;99.90
24560;DHT22;12727;49.934;8.656;2023-11-19T01:40:38;8.70;99.90
24560;DHT22;12727;49.934;8.656;2023-11-19T01:43:04;8.90;99.90
24560;DHT22;12727;49.934;8.656;2023-11-19T01:45:31;8.80;99.90
24560;DHT22;12727;49.934;8.656;2023-11-19T01:47:59;8.80;99.90
24560;DHT22;12727;49.934;8.656;2023-11-19T01:50:25;8.90;99.90
24560;DHT22;12727;49.934;8.656;2023-11-19T01:52:55;8.90;99.90
24560;DHT22;12727;49.934;8.656;2023-11-19T01:55:24;8.90;99.90
24560;DHT22;12727;49.934;8.656;2023-11-19T01:57:51;8.90;99.90
24560;DHT22;12727;49.934;8.656;2023-11-19T02:00:19;8.90;99.90
24560;DHT22;12727;49.934;8.656;2023-11-19T02:02:46;8.80;99.90
24560;DHT22;12727;49.934;8.656;2023-11-19T02:05:12;8.90;99.90
24560;DHT22;12727;49.934;8.656;2023-11-19T02:07:40;8.90;99.90
24560;DHT22;12727;49.934;8.656;2023-11-19T02:10:06;9.00;99.90
24560;DHT22;12727;49.934;8.656;2023-11-19T02:12:39;9.10;99.90
24560;DHT22;12727;49.934;8.656;2023-11-19T02:15:09;9.10;99.90
24560;DHT22;12727;49.934;8.656;2023-11-19T02:17:35;9.10;99.90
24560;DHT22;12727;49.934;8.656;2023-11-19T02:20:06;9.10;99.90
24560;DHT22;12727;49.934;8.656;2023-11-19T02:22:37;9.10;99.90
24560;DHT22;12727;49.934;8.656;2023-11-19T02:25:07;9.10;99.90
24560;DHT22;12727;49.934;8.656;2023-11-19T02:27:49;9.10;99.90
24560;DHT22;12727;49.934;8.656;2023-11-19T02:30:16;9.10;99.90
24560;DHT22;12727;49.934;8.656;2023-11-19T02:32:42;9.20;99.90
24560;DHT22;12727;49.934;8.656;2023-11-19T02:35:08;9.30;99.90
24560;DHT22;12727;49.934;8.656;2023-11-19T02:37:34;9.30;99.90
24560;DHT22;12727;49.934;8.656;2023-11-19T02:40:00;9.20;99.90
24560;DHT22;12727;49.934;8.656;2023-11-19T02:42:29;9.40;99.90
24560;DHT22;12727;49.934;8.656;2023-11-19T02:44:55;9.30;99.90
24560;DHT22;12727;49.934;8.656;2023-11-19T02:47:21;9.40;99.90
24560;DHT22;12727;49.934;8.656;2023-11-19T02:49:49;9.30;99.90
24560;DHT22;12727;49.934;8.656;2023-11-19T02:52:15;9.30;99.90
24560;DHT22;12727;49.934;8.656;2023-11-19T02:54:41;9.30;99.90
24560;DHT22;12727;49.934;8.656;2023-11-19T02:57:07;9.40;99.90
24560;DHT22;12727;49.934;8.656;2023-11-19T02:59:39;9.40;99.90
24560;DHT22;12727;49.934;8.656;2023-11-19T03:02:07;9.40;99.90
24560;DHT22;12727;49.934;8.656;2023-11-19T03:04:39;9.50;99.90
24560;DHT22;12727;49.934;8.656;2023-11-19T03:07:05;9.50;99.90
24560;DHT22;12727;49.934;8.656;2023-11-19T03:09:32;9.40;99.90
24560;DHT22;12727;49.934;8.656;2023-11-19T03:11:59;9.40;99.90
24560;DHT22;12727;49.934;8.656;2023-11-19T03:14:24;9.40;99.90
24560;DHT22;12727;49.934;8.656;2023-11-19T03:16:50;9.40;99.90
24560;DHT22;12727;49.934;8.656;2023-11-19T03:19:16;9.40;99.90
24560;DHT22;12727;49.934;8.656;2023-11-19T03:21:41;9.50;99.90
24560;DHT22;12727;49.934;8.656;2023-11-19T03:24:07;9.50;99.90
24560;DHT22;12727;49.934;8.656;2023-11-19T03:26:34;9.50;99.90
24560;DHT22;12727;49.934;8.656;2023-11-19T03:28:59;9.60;99.90
24560;DHT22;12727;49.934;8.656;2023-11-19T03:31:26;9.50;99.90
24560;DHT22;12727;49.934;8.656;2023-11-19T03:33:51;9.50;99.90
24560;DHT22;12727;49.934;8.656;2023-11-19T03:36:17;9.50;99.90
24560;DHT22;12727;49.934;8.656;2023-11-19T03:38:42;9.50;99.90
24560;DHT22;12727;49.934;8.656;2023-11-19T03:41:12;9.50;99.90
24560;DHT22;12727;49.934;8.656;2023-11-19T03:43:38;9.50;99.90
24560;DHT22;12727;49.934;8.656;2023-11-19T03:46:05;9.60;99.90
24560;DHT22;12727;49.934;8.656;2023-11-19T03:48:31;9.50;99.90
24560;DHT22;12727;49.934;8.656;2023-11-19T03:50:56;9.60;99.90
24560;DHT22;12727;49.934;8.656;2023-11-19T03:53:22;9.50;99.90
24560;DHT22;12727;49.934;8.656;2023-11-19T03:55:49;9.50;99.90
24560;DHT22;12727;49.934;8.656;2023-11-19T03:58:15;9.50;99.90
24560;DHT22;12727;49.934;8.656;2023-11-19T04:00:40;9.60;99.90
24560;DHT22;12727;49.934;8.656;2023-11-19T04:03:06;9.60;99.90
24560;DHT22;12727;49.934;8.656;2023-11-19T04:05:32;9.60;99.90
24560;DHT22;12727;49.934;8.656;2023-11-19T04:07:57;9.60;99.90
24560;DHT22;12727;49.934;8.656;2023-11-19T04:10:23;9.70;99.90
24560;DHT22;12727;49.934;8.656;2023-11-19T04:12:49;9.70;99.90
24560;DHT22;12727;49.934;8.656;2023-11-19T04:15:14;9.70;99.90
24560;DHT22;12727;49.934;8.656;2023-11-19T04:17:41;9.70;99.90
24560;DHT22;12727;49.934;8.656;2023-11-19T04:20:06;9.70;99.90
24560;DHT22;12727;49.934;8.656;2023-11-19T04:22:36;9.70;99.90
24560;DHT22;12727;49.934;8.656;2023-11-19T04:25:02;9.60;99.90
24560;DHT22;12727;49.934;8.656;2023-11-19T04:27:27;9.60;99.90
24560;DHT22;12727;49.934;8.656;2023-11-19T04:29:53;9.60;99.90
24560;DHT22;12727;49.934;8.656;2023-11-19T04:32:18;9.70;99.90
24560;DHT22;12727;49.934;8.656;2023-11-19T04:34:44;9.70;99.90
24560;DHT22;12727;49.934;8.656;2023-11-19T04:37:10;9.70;99.90
24560;DHT22;12727;49.934;8.656;2023-11-19T04:39:35;9.80;99.90
24560;DHT22;12727;49.934;8.656;2023-11-19T04:42:02;9.80;99.90
24560;DHT22;12727;49.934;8.656;2023-11-19T04:44:29;9.80;99.90
24560;DHT22;12727;49.934;8.656;2023-11-19T04:46:55;9.80;99.90
24560;DHT22;12727;49.934;8.656;2023-11-19T04:49:21;9.80;99.90
24560;DHT22;12727;49.934;8.656;2023-11-19T04:51:46;9.80;99.90
24560;DHT22;12727;49.934;8.656;2023-11-19T04:54:12;9.80;99.90
24560;DHT22;12727;49.934;8.656;2023-11-19T04:56:38;9.80;99.90
24560;DHT22;12727;49.934;8.656;2023-11-19T04:59:04;9.80;99.90
24560;DHT22;12727;49.934;8.656;2023-11-19T05:01:31;9.80;99.90
24560;DHT22;12727;49.934;8.656;2023-11-19T05:03:57;9.80;99.90
24560;DHT22;12727;49.934;8.656;2023-11-19T05:06:29;9.80;99.90
24560;DHT22;12727;49.934;8.656;2023-11-19T05:08:56;9.80;99.90
24560;DHT22;12727;49.934;8.656;2023-11-19T05:11:22;9.80;99.90
24560;DHT22;12727;49.934;8.656;2023-11-19T05:13:48;9.80;99.90
24560;DHT22;12727;49.934;8.656;2023-11-19T05:16:13;9.90;99.90
24560;DHT22;12727;49.934;8.656;2023-11-19T05:18:40;9.90;99.90
24560;DHT22;12727;49.934;8.656;2023-11-19T05:21:06;9.90;99.90
24560;DHT22;12727;49.934;8.656;2023-11-19T05:23:34;10.00;99.90
24560;DHT22;12727;49.934;8.656;2023-11-19T05:26:03;10.00;99.90
24560;DHT22;12727;49.934;8.656;2023-11-19T05:28:29;10.10;99.90
24560;DHT22;12727;49.934;8.656;2023-11-19T05:30:54;10.10;99.90
24560;DHT22;12727;49.934;8.656;2023-11-19T05:33:21;10.10;99.90
24560;DHT22;12727;49.934;8.656;2023-11-19T05:35:46;10.20;99.90
24560;DHT22;12727;49.934;8.656;2023-11-19T05:38:12;10.20;99.90
24560;DHT22;12727;49.934;8.656;2023-11-19T05:40:38;10.30;99.90
24560;DHT22;12727;49.934;8.656;2023-11-19T05:43:04;10.30;99.90
24560;DHT22;12727;49.934;8.656;2023-11-19T05:45:31;10.30;99.90
24560;DHT22;12727;49.934;8.656;2023-11-19T05:47:57;10.30;99.90
24560;DHT22;12727;49.934;8.656;2023-11-19T05:50:23;10.40;99.90
24560;DHT22;12727;49.934;8.656;2023-11-19T05:52:49;10.40;99.90
24560;DHT22;12727;49.934;8.656;2023-11-19T05:55:14;10.40;99.90
24560;DHT22;12727;49.934;8.656;2023-11-19T05:57:40;10.40;99.90
24560;DHT22;12727;49.934;8.656;2023-11-19T06:00:06;10.40;99.90
24560;DHT22;12727;49.934;8.656;2023-11-19T06:02:34;10.40;99.90
24560;DHT22;12727;49.934;8.656;2023-11-19T06:05:00;10.40;99.90
24560;DHT22;12727;49.934;8.656;2023-11-19T06:07:26;10.40;99.90
24560;DHT22;12727;49.934;8.656;2023-11-19T06:09:51;10.50;99.90
24560;DHT22;12727;49.934;8.656;2023-11-19T06:12:17;10.50;99.90
24560;DHT22;12727;49.934;8.656;2023-11-19T06:14:43;10.50;99.90
24560;DHT22;12727;49.934;8.656;2023-11-19T06:17:08;10.50;99.90
24560;DHT22;12727;49.934;8.656;2023-11-19T06:19:36;10.50;99.90
24560;DHT22;12727;49.934;8.656;2023-11-19T06:22:03;10.60;99.90
24560;DHT22;12727;49.934;8.656;2023-11-19T06:24:29;10.50;99.90
24560;DHT22;12727;49.934;8.656;2023-11-19T06:26:54;10.60;99.90
24560;DHT22;12727;49.934;8.656;2023-11-19T06:29:20;10.50;99.90
24560;DHT22;12727;49.934;8.656;2023-11-19T06:31:46;10.60;99.90
24560;DHT22;12727;49.934;8.656;2023-11-19T06:34:14;10.50;99.90
24560;DHT22;12727;49.934;8.656;2023-11-19T06:36:40;10.50;99.90
24560;DHT22;12727;49.934;8.656;2023-11-19T06:39:06;10.50;99.90
24560;DHT22;12727;49.934;8.656;2023-11-19T06:41:32;10.50;99.90
24560;DHT22;12727;49.934;8.656;2023-11-19T06:43:57;10.50;99.90
24560;DHT22;12727;49.934;8.656;2023-11-19T06:46:23;10.50;99.90
24560;DHT22;12727;49.934;8.656;2023-11-19T06:48:48;10.50;99.90
24560;DHT22;12727;49.934;8.656;2023-11-19T06:51:14;10.60;99.90
24560;DHT22;12727;49.934;8.656;2023-11-19T06:53:40;10.60;99.90
24560;DHT22;12727;49.934;8.656;2023-11-19T06:56:23;10.60;99.90
24560;DHT22;12727;49.934;8.656;2023-11-19T06:58:49;10.70;99.90
24560;DHT22;12727;49.934;8.656;2023-11-19T07:01:16;10.60;99.90
24560;DHT22;12727;49.934;8.656;2023-11-19T07:03:42;10.70;99.90
24560;DHT22;12727;49.934;8.656;2023-11-19T07:06:07;10.70;99.90
24560;DHT22;12727;49.934;8.656;2023-11-19T07:08:34;10.70;99.90
24560;DHT22;12727;49.934;8.656;2023-11-19T07:10:59;10.70;99.90
24560;DHT22;12727;49.934;8.656;2023-11-19T07:13:25;10.60;99.90
24560;DHT22;12727;49.934;8.656;2023-11-19T07:15:53;10.60;99.90
24560;DHT22;12727;49.934;8.656;2023-11-19T07:18:19;10.70;99.90
24560;DHT22;12727;49.934;8.656;2023-11-19T07:20:48;10.70;99.90
24560;DHT22;12727;49.934;8.656;2023-11-19T07:23:13;10.80;99.90
24560;DHT22;12727;49.934;8.656;2023-11-19T07:25:42;10.80;99.90
24560;DHT22;12727;49.934;8.656;2023-11-19T07:28:08;10.80;99.90
24560;DHT22;12727;49.934;8.656;2023-11-19T07:30:35;10.90;99.90
24560;DHT22;12727;49.934;8.656;2023-11-19T07:33:01;11.00;99.90
24560;DHT22;12727;49.934;8.656;2023-11-19T07:35:29;11.00;99.90
24560;DHT22;12727;49.934;8.656;2023-11-19T07:37:56;11.00;99.90
24560;DHT22;12727;49.934;8.656;2023-11-19T07:40:23;11.00;99.90
24560;DHT22;12727;49.934;8.656;2023-11-19T07:42:48;11.10;99.90
24560;DHT22;12727;49.934;8.656;2023-11-19T07:45:14;11.10;99.90
24560;DHT22;12727;49.934;8.656;2023-11-19T07:47:40;11.10;99.90
24560;DHT22;12727;49.934;8.656;2023-11-19T07:50:05;11.10;99.90
24560;DHT22;12727;49.934;8.656;2023-11-19T07:52:31;11.10;99.90
24560;DHT22;12727;49.934;8.656;2023-11-19T07:54:57;11.10;99.90
24560;DHT22;12727;49.934;8.656;2023-11-19T07:57:22;11.40;99.90
24560;DHT22;12727;49.934;8.656;2023-11-19T07:59:49;11.80;99.90
24560;DHT22;12727;49.934;8.656;2023-11-19T08:02:15;12.10;99.90
24560;DHT22;12727;49.934;8.656;2023-11-19T08:04:40;12.80;99.90
24560;DHT22;12727;49.934;8.656;2023-11-19T08:07:10;13.50;99.90
24560;DHT22;12727;49.934;8.656;2023-11-19T08:09:36;14.10;99.90
24560;DHT22;12727;49.934;8.656;2023-11-19T08:12:03;14.40;99.90
24560;DHT22;12727;49.934;8.656;2023-11-19T08:14:29;14.70;99.90
24560;DHT22;12727;49.934;8.656;2023-11-19T08:16:54;14.50;99.90
24560;DHT22;12727;49.934;8.656;2023-11-19T08:19:20;14.70;99.90
24560;DHT22;12727;49.934;8.656;2023-11-19T08:21:46;14.70;99.90
24560;DHT22;12727;49.934;8.656;2023-11-19T08:24:11;15.10;99.90
24560;DHT22;12727;49.934;8.656;2023-11-19T08:26:37;15.50;99.90
24560;DHT22;12727;49.934;8.656;2023-11-19T08:29:02;15.80;99.90
24560;DHT22;12727;49.934;8.656;2023-11-19T08:31:28;16.20;99.90
24560;DHT22;12727;49.934;8.656;2023-11-19T08:33:54;16.30;99.90
24560;DHT22;12727;49.934;8.656;2023-11-19T08:36:19;16.30;99.90
24560;DHT22;12727;49.934;8.656;2023-11-19T08:38:46;16.50;99.90
24560;DHT22;12727;49.934;8.656;2023-11-19T08:41:12;16.70;99.90
24560;DHT22;12727;49.934;8.656;2023-11-19T08:43:37;16.10;99.90
24560;DHT22;12727;49.934;8.656;2023-11-19T08:46:09;15.50;99.90
24560;DHT22;12727;49.934;8.656;2023-11-19T08:48:35;14.70;99.90
24560;DHT22;12727;49.934;8.656;2023-11-19T08:51:00;14.20;99.90
24560;DHT22;12727;49.934;8.656;2023-11-19T08:53:26;13.70;99.90
24560;DHT22;12727;49.934;8.656;2023-11-19T08:55:52;13.20;99.90
24560;DHT22;12727;49.934;8.656;2023-11-19T08:58:18;12.90;99.90
24560;DHT22;12727;49.934;8.656;2023-11-19T09:00:43;12.80;99.90
24560;DHT22;12727;49.934;8.656;2023-11-19T09:03:09;12.70;99.90
24560;DHT22;12727;49.934;8.656;2023-11-19T09:05:35;12.60;99.90
24560;DHT22;12727;49.934;8.656;2023-11-19T09:08:00;12.50;99.90
24560;DHT22;12727;49.934;8.656;2023-11-19T09:10:26;12.40;99.90
24560;DHT22;12727;49.934;8.656;2023-11-19T09:12:52;12.40;99.90
24560;DHT22;12727;49.934;8.656;2023-11-19T09:15:18;12.40;99.90
24560;DHT22;12727;49.934;8.656;2023-11-19T09:17:44;12.40;99.90
24560;DHT22;12727;49.934;8.656;2023-11-19T09:20:11;12.30;99.90
24560;DHT22;12727;49.934;8.656;2023-11-19T09:22:40;12.30;99.90
24560;DHT22;12727;49.934;8.656;2023-11-19T09:25:06;12.70;99.90
24560;DHT22;12727;49.934;8.656;2023-11-19T09:27:32;13.80;99.90
24560;DHT22;12727;49.934;8.656;2023-11-19T09:29:57;15.50;99.90
24560;DHT22;12727;49.934;8.656;2023-11-19T09:32:24;16.90;99.90
24560;DHT22;12727;49.934;8.656;2023-11-19T09:34:50;18.00;99.90
24560;DHT22;12727;49.934;8.656;2023-11-19T09:37:15;18.60;99.90
24560;DHT22;12727;49.934;8.656;2023-11-19T09:39:41;18.80;99.90
24560;DHT22;12727;49.934;8.656;2023-11-19T09:42:10;17.90;99.90
24560;DHT22;12727;49.934;8.656;2023-11-19T09:44:38;16.10;99.90
24560;DHT22;12727;49.934;8.656;2023-11-19T09:47:08;15.70;99.90
24560;DHT22;12727;49.934;8.656;2023-11-19T09:49:35;16.40;99.90
24560;DHT22;12727;49.934;8.656;2023-11-19T09:52:01;16.40;99.90
24560;DHT22;12727;49.934;8.656;2023-11-19T09:54:28;16.50;99.90
24560;DHT22;12727;49.934;8.656;2023-11-19T09:56:55;16.10;99.90
24560;DHT22;12727;49.934;8.656;2023-11-19T09:59:26;17.00;99.90
24560;DHT22;12727;49.934;8.656;2023-11-19T10:01:51;17.90;99.90
24560;DHT22;12727;49.934;8.656;2023-11-19T10:04:19;17.80;99.90
24560;DHT22;12727;49.934;8.656;2023-11-19T10:06:45;17.50;99.90
24560;DHT22;12727;49.934;8.656;2023-11-19T10:09:12;16.90;99.90
24560;DHT22;12727;49.934;8.656;2023-11-19T10:11:41;16.10;99.90
24560;DHT22;12727;49.934;8.656;2023-11-19T10:14:07;16.40;99.90
24560;DHT22;12727;49.934;8.656;2023-11-19T10:16:34;16.30;99.90
24560;DHT22;12727;49.934;8.656;2023-11-19T10:19:00;15.30;99.90
24560;DHT22;12727;49.934;8.656;2023-11-19T10:21:26;14.70;99.90
24560;DHT22;12727;49.934;8.656;2023-11-19T10:23:54;14.30;99.90
24560;DHT22;12727;49.934;8.656;2023-11-19T10:26:22;13.90;99.90
24560;DHT22;12727;49.934;8.656;2023-11-19T10:28:48;13.60;99.90
24560;DHT22;12727;49.934;8.656;2023-11-19T10:31:18;13.30;99.90
24560;DHT22;12727;49.934;8.656;2023-11-19T10:33:45;13.20;99.90
24560;DHT22;12727;49.934;8.656;2023-11-19T10:36:14;13.20;99.90
24560;DHT22;12727;49.934;8.656;2023-11-19T10:38:40;13.20;99.90
24560;DHT22;12727;49.934;8.656;2023-11-19T10:41:06;13.20;99.90
24560;DHT22;12727;49.934;8.656;2023-11-19T10:43:43;13.20;99.90
24560;DHT22;12727;49.934;8.656;2023-11-19T10:46:13;13.30;99.90
24560;DHT22;12727;49.934;8.656;2023-11-19T10:48:40;13.30;99.90
24560;DHT22;12727;49.934;8.656;2023-11-19T10:51:07;13.30;99.90
24560;DHT22;12727;49.934;8.656;2023-11-19T10:53:36;13.20;99.90
24560;DHT22;12727;49.934;8.656;2023-11-19T10:56:06;13.30;99.90
24560;DHT22;12727;49.934;8.656;2023-11-19T10:58:35;13.30;99.90
24560;DHT22;12727;49.934;8.656;2023-11-19T11:01:09;13.70;99.90
24560;DHT22;12727;49.934;8.656;2023-11-19T11:03:42;13.90;99.90
24560;DHT22;12727;49.934;8.656;2023-11-19T11:06:08;14.20;99.90
24560;DHT22;12727;49.934;8.656;2023-11-19T11:08:37;14.40;99.90
24560;DHT22;12727;49.934;8.656;2023-11-19T11:11:03;14.60;99.90
24560;DHT22;12727;49.934;8.656;2023-11-19T11:13:31;14.70;99.90
24560;DHT22;12727;49.934;8.656;2023-11-19T11:15:57;14.70;99.90
24560;DHT22;12727;49.934;8.656;2023-11-19T11:18:24;14.60;99.90
24560;DHT22;12727;49.934;8.656;2023-11-19T11:20:57;14.60;99.90
24560;DHT22;12727;49.934;8.656;2023-11-19T11:23:32;14.40;99.90
24560;DHT22;12727;49.934;8.656;2023-11-19T11:26:18;14.30;99.90
24560;DHT22;12727;49.934;8.656;2023-11-19T11:28:56;14.40;99.90
24560;DHT22;12727;49.934;8.656;2023-11-19T11:31:31;14.50;99.90
24560;DHT22;12727;49.934;8.656;2023-11-19T11:34:23;14.50;99.90
24560;DHT22;12727;49.934;8.656;2023-11-19T11:37:10;14.60;99.90
24560;DHT22;12727;49.934;8.656;2023-11-19T11:39:40;14.60;99.90
24560;DHT22;12727;49.934;8.656;2023-11-19T11:50:09;14.60;99.90
24560;DHT22;12727;49.934;8.656;2023-11-19T11:58:18;14.50;99.90
24560;DHT22;12727;49.934;8.656;2023-11-19T12:00:43;14.50;99.90
24560;DHT22;12727;49.934;8.656;2023-11-19T12:03:11;14.40;99.90
24560;DHT22;12727;49.934;8.656;2023-11-19T12:05:44;14.30;99.90
24560;DHT22;12727;49.934;8.656;2023-11-19T12:08:12;14.30;99.90
24560;DHT22;12727;49.934;8.656;2023-11-19T12:10:48;14.30;99.90
24560;DHT22;12727;49.934;8.656;2023-11-19T12:13:14;14.30;99.90
24560;DHT22;12727;49.934;8.656;2023-11-19T12:18:31;14.20;99.90
24560;DHT22;12727;49.934;8.656;2023-11-19T12:20:58;14.20;99.90
24560;DHT22;12727;49.934;8.656;2023-11-19T12:23:31;14.10;99.90
24560;DHT22;12727;49.934;8.656;2023-11-19T12:25:57;14.10;99.90
24560;DHT22;12727;49.934;8.656;2023-11-19T12:28:23;14.00;99.90
24560;DHT22;12727;49.934;8.656;2023-11-19T12:30:53;14.00;99.90
24560;DHT22;12727;49.934;8.656;2023-11-19T12:33:19;14.00;99.90
24560;DHT22;12727;49.934;8.656;2023-11-19T12:35:47;14.10;99.90
24560;DHT22;12727;49.934;8.656;2023-11-19T12:38:22;14.20;99.90
24560;DHT22;12727;49.934;8.656;2023-11-19T12:41:09;14.40;99.90
24560;DHT22;12727;49.934;8.656;2023-11-19T12:43:39;14.50;99.90
24560;DHT22;12727;49.934;8.656;2023-11-19T12:46:23;14.60;99.90
24560;DHT22;12727;49.934;8.656;2023-11-19T12:48:49;14.70;99.90
24560;DHT22;12727;49.934;8.656;2023-11-19T12:51:16;14.70;99.90
24560;DHT22;12727;49.934;8.656;2023-11-19T12:53:52;14.80;99.90
24560;DHT22;12727;49.934;8.656;2023-11-19T12:56:21;14.80;99.90
24560;DHT22;12727;49.934;8.656;2023-11-19T12:58:47;14.80;99.90
24560;DHT22;12727;49.934;8.656;2023-11-19T13:01:16;14.90;99.90
24560;DHT22;12727;49.934;8.656;2023-11-19T13:03:43;15.00;99.90
24560;DHT22;12727;49.934;8.656;2023-11-19T13:06:10;14.80;99.90
24560;DHT22;12727;49.934;8.656;2023-11-19T13:08:49;14.90;99.90
24560;DHT22;12727;49.934;8.656;2023-11-19T13:11:34;14.80;99.90
24560;DHT22;12727;49.934;8.656;2023-11-19T13:14:02;14.70;99.90
24560;DHT22;12727;49.934;8.656;2023-11-19T13:16:35;14.80;99.90
24560;DHT22;12727;49.934;8.656;2023-11-19T13:19:01;14.70;99.90
24560;DHT22;12727;49.934;8.656;2023-11-19T13:21:28;14.70;99.90
24560;DHT22;12727;49.934;8.656;2023-11-19T13:23:55;14.60;99.90
24560;DHT22;12727;49.934;8.656;2023-11-19T13:26:21;14.60;99.90
24560;DHT22;12727;49.934;8.656;2023-11-19T13:28:46;14.40;99.90
24560;DHT22;12727;49.934;8.656;2023-11-19T13:31:12;14.50;99.90
24560;DHT22;12727;49.934;8.656;2023-11-19T13:33:38;14.40;99.90
24560;DHT22;12727;49.934;8.656;2023-11-19T13:36:04;14.40;99.90
24560;DHT22;12727;49.934;8.656;2023-11-19T13:38:36;14.40;99.90
24560;DHT22;12727;49.934;8.656;2023-11-19T13:41:05;14.50;99.90
24560;DHT22;12727;49.934;8.656;2023-11-19T13:43:31;14.50;99.90
24560;DHT22;12727;49.934;8.656;2023-11-19T13:45:57;14.50;99.90
24560;DHT22;12727;49.934;8.656;2023-11-19T13:48:24;14.50;99.90
24560;DHT22;12727;49.934;8.656;2023-11-19T13:50:50;14.50;99.90
24560;DHT22;12727;49.934;8.656;2023-11-19T13:53:16;14.40;99.90
24560;DHT22;12727;49.934;8.656;2023-11-19T13:55:42;14.30;99.90
24560;DHT22;12727;49.934;8.656;2023-11-19T13:58:08;14.30;99.90
24560;DHT22;12727;49.934;8.656;2023-11-19T14:00:34;14.20;99.90
24560;DHT22;12727;49.934;8.656;2023-11-19T14:03:00;14.20;99.90
24560;DHT22;12727;49.934;8.656;2023-11-19T14:05:26;14.20;99.90
24560;DHT22;12727;49.934;8.656;2023-11-19T14:07:52;14.20;99.90
24560;DHT22;12727;49.934;8.656;2023-11-19T14:10:19;14.20;99.90
24560;DHT22;12727;49.934;8.656;2023-11-19T14:12:45;14.10;99.90
24560;DHT22;12727;49.934;8.656;2023-11-19T14:15:10;14.10;99.90
24560;DHT22;12727;49.934;8.656;2023-11-19T14:17:38;14.00;99.90
24560;DHT22;12727;49.934;8.656;2023-11-19T14:20:04;14.00;99.90
24560;DHT22;12727;49.934;8.656;2023-11-19T14:22:41;13.90;99.90
24560;DHT22;12727;49.934;8.656;2023-11-19T14:25:07;13.90;99.90
24560;DHT22;12727;49.934;8.656;2023-11-19T14:27:35;13.90;99.90
24560;DHT22;12727;49.934;8.656;2023-11-19T14:30:02;13.80;99.90
24560;DHT22;12727;49.934;8.656;2023-11-19T14:32:28;13.90;99.90
24560;DHT22;12727;49.934;8.656;2023-11-19T14:34:53;13.90;99.90
24560;DHT22;12727;49.934;8.656;2023-11-19T14:37:19;13.90;99.90
24560;DHT22;12727;49.934;8.656;2023-11-19T14:39:44;14.00;99.90
24560;DHT22;12727;49.934;8.656;2023-11-19T14:42:11;14.00;99.90
24560;DHT22;12727;49.934;8.656;2023-11-19T14:44:37;13.90;99.90
24560;DHT22;12727;49.934;8.656;2023-11-19T14:47:02;13.90;99.90
24560;DHT22;12727;49.934;8.656;2023-11-19T14:49:28;13.80;99.90
24560;DHT22;12727;49.934;8.656;2023-11-19T14:51:54;13.80;99.90
24560;DHT22;12727;49.934;8.656;2023-11-19T14:54:19;13.90;99.90
24560;DHT22;12727;49.934;8.656;2023-11-19T14:56:45;13.80;99.90
24560;DHT22;12727;49.934;8.656;2023-11-19T14:59:10;13.80;99.90
24560;DHT22;12727;49.934;8.656;2023-11-19T15:01:36;13.80;99.90
24560;DHT22;12727;49.934;8.656;2023-11-19T15:04:01;13.70;99.90
24560;DHT22;12727;49.934;8.656;2023-11-19T15:06:27;13.70;99.90
24560;DHT22;12727;49.934;8.656;2023-11-19T15:08:53;13.60;99.90
24560;DHT22;12727;49.934;8.656;2023-11-19T15:11:20;13.70;99.90
24560;DHT22;12727;49.934;8.656;2023-11-19T15:13:46;13.60;99.90
24560;DHT22;12727;49.934;8.656;2023-11-19T15:16:12;13.60;99.90
24560;DHT22;12727;49.934;8.656;2023-11-19T15:18:40;13.60;99.90
24560;DHT22;12727;49.934;8.656;2023-11-19T15:21:05;13.40;99.90
24560;DHT22;12727;49.934;8.656;2023-11-19T15:23:31;13.30;99.90
24560;DHT22;12727;49.934;8.656;2023-11-19T15:25:57;13.30;99.90
24560;DHT22;12727;49.934;8.656;2023-11-19T15:28:22;13.20;99.90
24560;DHT22;12727;49.934;8.656;2023-11-19T15:30:48;13.10;99.90
24560;DHT22;12727;49.934;8.656;2023-11-19T15:33:14;13.10;99.90
24560;DHT22;12727;49.934;8.656;2023-11-19T15:35:40;13.00;99.90
24560;DHT22;12727;49.934;8.656;2023-11-19T15:38:06;13.10;99.90
24560;DHT22;12727;49.934;8.656;2023-11-19T15:40:35;12.90;99.90
24560;DHT22;12727;49.934;8.656;2023-11-19T15:43:03;12.90;99.90
24560;DHT22;12727;49.934;8.656;2023-11-19T15:45:28;12.80;99.90
24560;DHT22;12727;49.934;8.656;2023-11-19T15:47:54;12.80;99.90
24560;DHT22;12727;49.934;8.656;2023-11-19T15:50:20;12.70;99.90